sensor_id;sensor_type;location;lat;lon;timestamp;temperature;humidity
80426;DHT22;69766;51.476;5.704;2023-10-09T00:01:05;13.70;99.90
80426;DHT22;69766;51.476;5.704;2023-10-09T00:03:44;13.70;99.90
80426;DHT22;69766;51.476;5.704;2023-10-09T00:06:16;13.80;99.90
80426;DHT22;69766;51.476;5.704;2023-10-09T00:08:42;13.80;99.90
80426;DHT22;69766;51.476;5.704;2023-10-09T00:11:25;13.70;99.90
80426;DHT22;69766;51.476;5.704;2023-10-09T00:14:03;13.80;99.90
80426;DHT22;69766;51.476;5.704;2023-10-09T00:16:33;13.70;99.90
80426;DHT22;69766;51.476;5.704;2023-10-09T00:19:04;13.70;99.90
80426;DHT22;69766;51.476;5.704;2023-10-09T00:21:47;13.70;99.90
80426;DHT22;69766;51.476;5.704;2023-10-09T00:24:14;13.70;99.90
80426;DHT22;69766;51.476;5.704;2023-10-09T00:26:45;13.70;99.90
80426;DHT22;69766;51.476;5.704;2023-10-09T00:29:20;13.70;99.90
80426;DHT22;69766;51.476;5.704;2023-10-09T00:32:00;13.70;99.90
80426;DHT22;69766;51.476;5.704;2023-10-09T00:34:31;13.80;99.90
80426;DHT22;69766;51.476;5.704;2023-10-09T00:37:08;13.80;99.90
80426;DHT22;69766;51.476;5.704;2023-10-09T00:39:48;13.90;99.90
80426;DHT22;69766;51.476;5.704;2023-10-09T00:42:21;14.00;99.90
80426;DHT22;69766;51.476;5.704;2023-10-09T00:45:02;14.00;99.90
80426;DHT22;69766;51.476;5.704;2023-10-09T00:47:34;14.10;99.90
80426;DHT22;69766;51.476;5.704;2023-10-09T00:50:08;14.10;99.90
80426;DHT22;69766;51.476;5.704;2023-10-09T00:52:54;14.10;99.90
80426;DHT22;69766;51.476;5.704;2023-10-09T00:55:41;14.10;99.90
80426;DHT22;69766;51.476;5.704;2023-10-09T00:58:21;14.10;99.90
80426;DHT22;69766;51.476;5.704;2023-10-09T01:00:52;14.20;99.90
80426;DHT22;69766;51.476;5.704;2023-10-09T01:03:19;14.10;99.90
80426;DHT22;69766;51.476;5.704;2023-10-09T01:05:59;14.20;99.90
80426;DHT22;69766;51.476;5.704;2023-10-09T01:08:34;14.30;99.90
80426;DHT22;69766;51.476;5.704;2023-10-09T01:11:15;14.40;99.90
80426;DHT22;69766;51.476;5.704;2023-10-09T01:13:54;14.40;99.90
80426;DHT22;69766;51.476;5.704;2023-10-09T01:16:25;14.40;99.90
80426;DHT22;69766;51.476;5.704;2023-10-09T01:19:00;14.40;99.90
80426;DHT22;69766;51.476;5.704;2023-10-09T01:21:34;14.50;99.90
80426;DHT22;69766;51.476;5.704;2023-10-09T01:24:01;14.50;99.90
80426;DHT22;69766;51.476;5.704;2023-10-09T01:26:31;14.50;99.90
80426;DHT22;69766;51.476;5.704;2023-10-09T01:29:24;14.40;99.90
80426;DHT22;69766;51.476;5.704;2023-10-09T01:31:56;14.40;99.90
80426;DHT22;69766;51.476;5.704;2023-10-09T01:34:31;14.50;99.90
80426;DHT22;69766;51.476;5.704;2023-10-09T01:37:12;14.50;99.90
80426;DHT22;69766;51.476;5.704;2023-10-09T01:39:48;14.60;99.90
80426;DHT22;69766;51.476;5.704;2023-10-09T01:42:17;14.70;99.90
80426;DHT22;69766;51.476;5.704;2023-10-09T01:44:56;14.60;99.90
80426;DHT22;69766;51.476;5.704;2023-10-09T01:47:40;14.60;99.90
80426;DHT22;69766;51.476;5.704;2023-10-09T01:50:09;14.60;99.90
80426;DHT22;69766;51.476;5.704;2023-10-09T01:52:51;14.70;99.90
80426;DHT22;69766;51.476;5.704;2023-10-09T01:55:17;14.70;99.90
80426;DHT22;69766;51.476;5.704;2023-10-09T01:57:58;14.60;99.90
80426;DHT22;69766;51.476;5.704;2023-10-09T02:00:55;14.70;99.90
80426;DHT22;69766;51.476;5.704;2023-10-09T02:03:22;14.70;99.90
80426;DHT22;69766;51.476;5.704;2023-10-09T02:05:55;14.70;99.90
80426;DHT22;69766;51.476;5.704;2023-10-09T02:08:29;14.60;99.90
80426;DHT22;69766;51.476;5.704;2023-10-09T02:11:04;14.60;99.90
80426;DHT22;69766;51.476;5.704;2023-10-09T02:13:30;14.60;99.90
80426;DHT22;69766;51.476;5.704;2023-10-09T02:15:57;14.70;99.90
80426;DHT22;69766;51.476;5.704;2023-10-09T02:18:53;14.70;99.90
80426;DHT22;69766;51.476;5.704;2023-10-09T02:21:25;14.80;99.90
80426;DHT22;69766;51.476;5.704;2023-10-09T02:24:05;14.80;99.90
80426;DHT22;69766;51.476;5.704;2023-10-09T02:26:36;14.70;99.90
80426;DHT22;69766;51.476;5.704;2023-10-09T02:29:04;14.70;99.90
80426;DHT22;69766;51.476;5.704;2023-10-09T02:31:41;14.70;99.90
80426;DHT22;69766;51.476;5.704;2023-10-09T02:34:10;14.70;99.90
80426;DHT22;69766;51.476;5.704;2023-10-09T02:36:36;14.70;99.90
80426;DHT22;69766;51.476;5.704;2023-10-09T02:39:09;14.70;99.90
80426;DHT22;69766;51.476;5.704;2023-10-09T02:42:04;14.70;99.90
80426;DHT22;69766;51.476;5.704;2023-10-09T02:44:45;14.70;99.90
80426;DHT22;69766;51.476;5.704;2023-10-09T02:47:15;14.80;99.90
80426;DHT22;69766;51.476;5.704;2023-10-09T02:49:54;14.80;99.90
80426;DHT22;69766;51.476;5.704;2023-10-09T02:52:29;14.80;99.90
80426;DHT22;69766;51.476;5.704;2023-10-09T02:54:59;14.80;99.90
80426;DHT22;69766;51.476;5.704;2023-10-09T02:57:28;14.80;99.90
80426;DHT22;69766;51.476;5.704;2023-10-09T03:00:03;14.80;99.90
80426;DHT22;69766;51.476;5.704;2023-10-09T03:02:29;14.90;99.90
80426;DHT22;69766;51.476;5.704;2023-10-09T03:04:57;14.80;99.90
80426;DHT22;69766;51.476;5.704;2023-10-09T03:07:24;14.90;99.90
80426;DHT22;69766;51.476;5.704;2023-10-09T03:09:50;14.90;99.90
80426;DHT22;69766;51.476;5.704;2023-10-09T03:12:16;14.90;99.90
80426;DHT22;69766;51.476;5.704;2023-10-09T03:14:47;14.90;99.90
80426;DHT22;69766;51.476;5.704;2023-10-09T03:17:15;15.00;99.90
80426;DHT22;69766;51.476;5.704;2023-10-09T03:19:43;14.90;99.90
80426;DHT22;69766;51.476;5.704;2023-10-09T03:22:11;14.90;99.90
80426;DHT22;69766;51.476;5.704;2023-10-09T03:24:46;14.90;99.90
80426;DHT22;69766;51.476;5.704;2023-10-09T03:27:14;14.90;99.90
80426;DHT22;69766;51.476;5.704;2023-10-09T03:29:44;15.00;99.90
80426;DHT22;69766;51.476;5.704;2023-10-09T03:32:15;15.00;99.90
80426;DHT22;69766;51.476;5.704;2023-10-09T03:34:41;15.00;99.90
80426;DHT22;69766;51.476;5.704;2023-10-09T03:37:07;15.00;99.90
80426;DHT22;69766;51.476;5.704;2023-10-09T03:39:49;15.00;99.90
80426;DHT22;69766;51.476;5.704;2023-10-09T03:42:22;15.00;99.90
80426;DHT22;69766;51.476;5.704;2023-10-09T03:44:50;15.00;99.90
80426;DHT22;69766;51.476;5.704;2023-10-09T03:47:23;15.00;99.90
80426;DHT22;69766;51.476;5.704;2023-10-09T03:49:50;15.00;99.90
80426;DHT22;69766;51.476;5.704;2023-10-09T03:52:21;15.00;99.90
80426;DHT22;69766;51.476;5.704;2023-10-09T03:54:53;15.00;99.90
80426;DHT22;69766;51.476;5.704;2023-10-09T03:57:18;14.90;99.90
80426;DHT22;69766;51.476;5.704;2023-10-09T03:59:48;14.90;99.90
80426;DHT22;69766;51.476;5.704;2023-10-09T04:02:14;15.00;99.90
80426;DHT22;69766;51.476;5.704;2023-10-09T04:04:40;15.00;99.90
80426;DHT22;69766;51.476;5.704;2023-10-09T04:07:13;14.90;99.90
80426;DHT22;69766;51.476;5.704;2023-10-09T04:09:44;15.00;99.90
80426;DHT22;69766;51.476;5.704;2023-10-09T04:12:13;15.00;99.90
80426;DHT22;69766;51.476;5.704;2023-10-09T04:14:49;15.00;99.90
80426;DHT22;69766;51.476;5.704;2023-10-09T04:17:21;15.00;99.90
80426;DHT22;69766;51.476;5.704;2023-10-09T04:19:53;15.00;99.90
80426;DHT22;69766;51.476;5.704;2023-10-09T04:22:41;14.90;99.90
80426;DHT22;69766;51.476;5.704;2023-10-09T04:25:22;14.90;99.90
80426;DHT22;69766;51.476;5.704;2023-10-09T04:27:55;14.80;99.90
80426;DHT22;69766;51.476;5.704;2023-10-09T04:30:43;14.70;99.90
80426;DHT22;69766;51.476;5.704;2023-10-09T04:33:09;14.80;99.90
80426;DHT22;69766;51.476;5.704;2023-10-09T04:38:51;14.80;99.90
80426;DHT22;69766;51.476;5.704;2023-10-09T04:41:32;14.80;99.90
80426;DHT22;69766;51.476;5.704;2023-10-09T04:44:27;14.90;99.90
80426;DHT22;69766;51.476;5.704;2023-10-09T04:47:01;14.80;99.90
80426;DHT22;69766;51.476;5.704;2023-10-09T04:49:38;14.90;99.90
80426;DHT22;69766;51.476;5.704;2023-10-09T04:52:14;14.90;99.90
80426;DHT22;69766;51.476;5.704;2023-10-09T04:54:57;14.90;99.90
80426;DHT22;69766;51.476;5.704;2023-10-09T04:57:35;14.90;99.90
80426;DHT22;69766;51.476;5.704;2023-10-09T05:00:08;14.90;99.90
80426;DHT22;69766;51.476;5.704;2023-10-09T05:02:58;14.80;99.90
80426;DHT22;69766;51.476;5.704;2023-10-09T05:05:37;14.90;99.90
80426;DHT22;69766;51.476;5.704;2023-10-09T05:08:18;14.80;99.90
80426;DHT22;69766;51.476;5.704;2023-10-09T05:10:48;14.80;99.90
80426;DHT22;69766;51.476;5.704;2023-10-09T05:13:27;14.90;99.90
80426;DHT22;69766;51.476;5.704;2023-10-09T05:16:15;14.90;99.90
80426;DHT22;69766;51.476;5.704;2023-10-09T05:18:42;15.00;99.90
80426;DHT22;69766;51.476;5.704;2023-10-09T05:21:12;15.00;99.90
80426;DHT22;69766;51.476;5.704;2023-10-09T05:23:41;14.90;99.90
80426;DHT22;69766;51.476;5.704;2023-10-09T05:26:15;15.00;99.90
80426;DHT22;69766;51.476;5.704;2023-10-09T05:28:59;15.00;99.90
80426;DHT22;69766;51.476;5.704;2023-10-09T05:31:24;15.00;99.90
80426;DHT22;69766;51.476;5.704;2023-10-09T05:34:21;15.00;99.90
80426;DHT22;69766;51.476;5.704;2023-10-09T05:36:48;15.10;99.90
80426;DHT22;69766;51.476;5.704;2023-10-09T05:39:19;15.10;99.90
80426;DHT22;69766;51.476;5.704;2023-10-09T05:42:06;15.10;99.90
80426;DHT22;69766;51.476;5.704;2023-10-09T05:44:56;15.10;99.90
80426;DHT22;69766;51.476;5.704;2023-10-09T05:47:41;15.00;99.90
80426;DHT22;69766;51.476;5.704;2023-10-09T05:50:22;15.00;99.90
80426;DHT22;69766;51.476;5.704;2023-10-09T05:52:49;15.00;99.90
80426;DHT22;69766;51.476;5.704;2023-10-09T05:55:18;15.00;99.90
80426;DHT22;69766;51.476;5.704;2023-10-09T05:57:54;15.00;99.90
80426;DHT22;69766;51.476;5.704;2023-10-09T06:00:39;15.10;99.90
80426;DHT22;69766;51.476;5.704;2023-10-09T06:03:23;15.10;99.90
80426;DHT22;69766;51.476;5.704;2023-10-09T06:05:53;15.10;99.90
80426;DHT22;69766;51.476;5.704;2023-10-09T06:08:20;15.20;99.90
80426;DHT22;69766;51.476;5.704;2023-10-09T06:11:15;15.10;99.90
80426;DHT22;69766;51.476;5.704;2023-10-09T06:14:02;15.20;99.90
80426;DHT22;69766;51.476;5.704;2023-10-09T06:16:54;15.10;99.90
80426;DHT22;69766;51.476;5.704;2023-10-09T06:19:33;15.10;99.90
80426;DHT22;69766;51.476;5.704;2023-10-09T06:22:06;15.30;99.90
80426;DHT22;69766;51.476;5.704;2023-10-09T06:24:47;15.20;99.90
80426;DHT22;69766;51.476;5.704;2023-10-09T06:27:37;15.20;99.90
80426;DHT22;69766;51.476;5.704;2023-10-09T06:30:10;15.20;99.90
80426;DHT22;69766;51.476;5.704;2023-10-09T06:32:41;15.20;99.90
80426;DHT22;69766;51.476;5.704;2023-10-09T06:35:47;15.30;99.90
80426;DHT22;69766;51.476;5.704;2023-10-09T06:38:44;15.30;99.90
80426;DHT22;69766;51.476;5.704;2023-10-09T06:41:43;15.30;99.90
80426;DHT22;69766;51.476;5.704;2023-10-09T06:44:13;15.30;99.90
80426;DHT22;69766;51.476;5.704;2023-10-09T06:47:02;15.30;99.90
80426;DHT22;69766;51.476;5.704;2023-10-09T06:49:33;15.30;99.90
80426;DHT22;69766;51.476;5.704;2023-10-09T06:52:02;15.40;99.90
80426;DHT22;69766;51.476;5.704;2023-10-09T06:54:44;15.40;99.90
80426;DHT22;69766;51.476;5.704;2023-10-09T06:57:21;15.50;99.90
80426;DHT22;69766;51.476;5.704;2023-10-09T07:00:13;15.40;99.90
80426;DHT22;69766;51.476;5.704;2023-10-09T07:03:03;15.50;99.90
80426;DHT22;69766;51.476;5.704;2023-10-09T07:05:39;15.50;99.90
80426;DHT22;69766;51.476;5.704;2023-10-09T07:08:26;15.50;99.90
80426;DHT22;69766;51.476;5.704;2023-10-09T07:11:04;15.50;99.90
80426;DHT22;69766;51.476;5.704;2023-10-09T07:14:09;15.50;99.90
80426;DHT22;69766;51.476;5.704;2023-10-09T07:17:05;15.50;99.90
80426;DHT22;69766;51.476;5.704;2023-10-09T07:19:59;15.50;99.90
80426;DHT22;69766;51.476;5.704;2023-10-09T07:22:35;15.60;99.90
80426;DHT22;69766;51.476;5.704;2023-10-09T07:25:05;15.70;99.90
80426;DHT22;69766;51.476;5.704;2023-10-09T07:27:50;15.80;99.90
80426;DHT22;69766;51.476;5.704;2023-10-09T07:30:20;15.80;99.90
80426;DHT22;69766;51.476;5.704;2023-10-09T07:33:11;15.90;99.90
80426;DHT22;69766;51.476;5.704;2023-10-09T07:35:48;16.00;99.90
80426;DHT22;69766;51.476;5.704;2023-10-09T07:38:27;16.00;99.90
80426;DHT22;69766;51.476;5.704;2023-10-09T07:41:03;16.10;99.90
80426;DHT22;69766;51.476;5.704;2023-10-09T07:43:34;15.90;99.90
80426;DHT22;69766;51.476;5.704;2023-10-09T07:46:24;16.00;99.90
80426;DHT22;69766;51.476;5.704;2023-10-09T07:49:10;16.00;99.90
80426;DHT22;69766;51.476;5.704;2023-10-09T07:51:50;15.90;99.90
80426;DHT22;69766;51.476;5.704;2023-10-09T07:54:18;15.90;99.90
80426;DHT22;69766;51.476;5.704;2023-10-09T07:57:02;15.90;99.90
80426;DHT22;69766;51.476;5.704;2023-10-09T07:59:37;15.80;99.90
80426;DHT22;69766;51.476;5.704;2023-10-09T08:02:22;15.90;99.90
80426;DHT22;69766;51.476;5.704;2023-10-09T08:04:59;15.90;99.90
80426;DHT22;69766;51.476;5.704;2023-10-09T08:07:54;15.80;99.90
80426;DHT22;69766;51.476;5.704;2023-10-09T08:10:27;15.90;99.90
80426;DHT22;69766;51.476;5.704;2023-10-09T08:12:59;15.90;99.90
80426;DHT22;69766;51.476;5.704;2023-10-09T08:15:27;15.90;99.90
80426;DHT22;69766;51.476;5.704;2023-10-09T08:18:19;15.90;99.90
80426;DHT22;69766;51.476;5.704;2023-10-09T08:20:56;15.90;99.90
80426;DHT22;69766;51.476;5.704;2023-10-09T08:23:28;15.90;99.90
80426;DHT22;69766;51.476;5.704;2023-10-09T08:26:19;16.00;99.90
80426;DHT22;69766;51.476;5.704;2023-10-09T08:28:55;16.00;99.90
80426;DHT22;69766;51.476;5.704;2023-10-09T08:31:56;16.20;99.90
80426;DHT22;69766;51.476;5.704;2023-10-09T08:34:45;16.30;99.90
80426;DHT22;69766;51.476;5.704;2023-10-09T08:37:19;16.30;99.90
80426;DHT22;69766;51.476;5.704;2023-10-09T08:39:49;16.30;99.90
80426;DHT22;69766;51.476;5.704;2023-10-09T08:42:15;16.40;99.90
80426;DHT22;69766;51.476;5.704;2023-10-09T08:44:46;16.50;99.90
80426;DHT22;69766;51.476;5.704;2023-10-09T08:47:15;16.70;99.90
80426;DHT22;69766;51.476;5.704;2023-10-09T08:49:44;16.70;99.90
80426;DHT22;69766;51.476;5.704;2023-10-09T08:52:11;16.80;99.90
80426;DHT22;69766;51.476;5.704;2023-10-09T08:54:48;16.90;99.90
80426;DHT22;69766;51.476;5.704;2023-10-09T08:57:24;17.00;99.90
80426;DHT22;69766;51.476;5.704;2023-10-09T08:59:52;17.00;99.90
80426;DHT22;69766;51.476;5.704;2023-10-09T09:02:18;17.00;99.90
80426;DHT22;69766;51.476;5.704;2023-10-09T09:04:44;17.10;99.90
80426;DHT22;69766;51.476;5.704;2023-10-09T09:07:27;17.20;99.90
80426;DHT22;69766;51.476;5.704;2023-10-09T09:10:00;17.30;99.90
80426;DHT22;69766;51.476;5.704;2023-10-09T09:12:46;17.50;99.90
80426;DHT22;69766;51.476;5.704;2023-10-09T09:15:24;17.60;99.90
80426;DHT22;69766;51.476;5.704;2023-10-09T09:18:10;17.70;99.90
80426;DHT22;69766;51.476;5.704;2023-10-09T09:20:37;17.80;99.90
80426;DHT22;69766;51.476;5.704;2023-10-09T09:23:10;18.10;99.90
80426;DHT22;69766;51.476;5.704;2023-10-09T09:25:45;18.30;99.90
80426;DHT22;69766;51.476;5.704;2023-10-09T09:28:14;18.40;99.90
80426;DHT22;69766;51.476;5.704;2023-10-09T09:30:47;18.50;99.90
80426;DHT22;69766;51.476;5.704;2023-10-09T09:33:25;18.90;99.90
80426;DHT22;69766;51.476;5.704;2023-10-09T09:36:06;19.10;99.90
80426;DHT22;69766;51.476;5.704;2023-10-09T09:38:35;19.10;99.90
80426;DHT22;69766;51.476;5.704;2023-10-09T09:41:18;19.00;99.90
80426;DHT22;69766;51.476;5.704;2023-10-09T09:43:57;19.00;99.90
80426;DHT22;69766;51.476;5.704;2023-10-09T09:46:31;18.90;99.90
80426;DHT22;69766;51.476;5.704;2023-10-09T09:49:05;18.80;99.90
80426;DHT22;69766;51.476;5.704;2023-10-09T09:51:37;18.60;99.90
80426;DHT22;69766;51.476;5.704;2023-10-09T09:54:03;18.70;99.90
80426;DHT22;69766;51.476;5.704;2023-10-09T09:56:36;18.70;99.90
80426;DHT22;69766;51.476;5.704;2023-10-09T09:59:08;19.00;99.90
80426;DHT22;69766;51.476;5.704;2023-10-09T10:01:46;19.00;99.90
80426;DHT22;69766;51.476;5.704;2023-10-09T10:04:28;19.00;99.90
80426;DHT22;69766;51.476;5.704;2023-10-09T10:06:57;18.90;99.90
80426;DHT22;69766;51.476;5.704;2023-10-09T10:09:39;18.90;99.90
80426;DHT22;69766;51.476;5.704;2023-10-09T10:12:07;19.10;99.90
80426;DHT22;69766;51.476;5.704;2023-10-09T10:14:56;19.30;99.90
80426;DHT22;69766;51.476;5.704;2023-10-09T10:17:31;19.60;99.90
80426;DHT22;69766;51.476;5.704;2023-10-09T10:22:41;19.80;99.90
80426;DHT22;69766;51.476;5.704;2023-10-09T10:28:24;20.00;99.90
80426;DHT22;69766;51.476;5.704;2023-10-09T10:31:09;19.90;99.90
80426;DHT22;69766;51.476;5.704;2023-10-09T10:36:32;19.80;99.90
80426;DHT22;69766;51.476;5.704;2023-10-09T10:39:05;19.70;99.90
80426;DHT22;69766;51.476;5.704;2023-10-09T10:41:55;19.60;99.90
80426;DHT22;69766;51.476;5.704;2023-10-09T10:44:33;19.60;99.90
80426;DHT22;69766;51.476;5.704;2023-10-09T10:47:03;19.80;99.90
80426;DHT22;69766;51.476;5.704;2023-10-09T10:49:32;20.00;99.90
80426;DHT22;69766;51.476;5.704;2023-10-09T10:52:06;20.00;99.90
80426;DHT22;69766;51.476;5.704;2023-10-09T10:54:42;20.00;99.90
80426;DHT22;69766;51.476;5.704;2023-10-09T10:57:35;20.00;99.90
80426;DHT22;69766;51.476;5.704;2023-10-09T11:00:22;20.20;99.90
80426;DHT22;69766;51.476;5.704;2023-10-09T11:03:06;20.30;99.90
80426;DHT22;69766;51.476;5.704;2023-10-09T11:05:55;20.50;99.90
80426;DHT22;69766;51.476;5.704;2023-10-09T11:08:25;20.30;99.90
80426;DHT22;69766;51.476;5.704;2023-10-09T11:11:12;20.10;99.90
80426;DHT22;69766;51.476;5.704;2023-10-09T11:13:41;20.20;99.90
80426;DHT22;69766;51.476;5.704;2023-10-09T11:16:24;20.20;99.90
80426;DHT22;69766;51.476;5.704;2023-10-09T11:19:12;20.20;99.90
80426;DHT22;69766;51.476;5.704;2023-10-09T11:21:50;20.30;99.90
80426;DHT22;69766;51.476;5.704;2023-10-09T11:24:25;20.30;99.90
80426;DHT22;69766;51.476;5.704;2023-10-09T11:26:52;20.40;99.90
80426;DHT22;69766;51.476;5.704;2023-10-09T11:29:22;20.60;99.90
80426;DHT22;69766;51.476;5.704;2023-10-09T11:32:07;20.70;99.90
80426;DHT22;69766;51.476;5.704;2023-10-09T11:34:48;21.00;99.90
80426;DHT22;69766;51.476;5.704;2023-10-09T11:37:21;21.00;99.90
80426;DHT22;69766;51.476;5.704;2023-10-09T11:39:59;20.90;99.90
80426;DHT22;69766;51.476;5.704;2023-10-09T11:42:29;21.10;99.90
80426;DHT22;69766;51.476;5.704;2023-10-09T11:45:03;21.00;99.90
80426;DHT22;69766;51.476;5.704;2023-10-09T11:47:52;21.10;99.90
80426;DHT22;69766;51.476;5.704;2023-10-09T11:50:45;21.00;99.90
80426;DHT22;69766;51.476;5.704;2023-10-09T11:53:20;21.30;99.90
80426;DHT22;69766;51.476;5.704;2023-10-09T11:55:49;21.20;99.90
80426;DHT22;69766;51.476;5.704;2023-10-09T11:58:16;21.20;99.90
80426;DHT22;69766;51.476;5.704;2023-10-09T12:00:58;21.20;99.90
80426;DHT22;69766;51.476;5.704;2023-10-09T12:03:31;21.40;99.90
80426;DHT22;69766;51.476;5.704;2023-10-09T12:05:59;21.30;99.90
80426;DHT22;69766;51.476;5.704;2023-10-09T12:08:31;21.30;99.90
80426;DHT22;69766;51.476;5.704;2023-10-09T12:11:01;21.30;99.90
80426;DHT22;69766;51.476;5.704;2023-10-09T12:13:39;20.90;99.90
80426;DHT22;69766;51.476;5.704;2023-10-09T12:16:08;20.70;99.90
80426;DHT22;69766;51.476;5.704;2023-10-09T12:18:36;20.50;99.90
80426;DHT22;69766;51.476;5.704;2023-10-09T12:21:11;20.60;99.90
80426;DHT22;69766;51.476;5.704;2023-10-09T12:23:41;20.80;99.90
80426;DHT22;69766;51.476;5.704;2023-10-09T12:26:09;20.90;99.90
80426;DHT22;69766;51.476;5.704;2023-10-09T12:28:43;20.90;99.90
80426;DHT22;69766;51.476;5.704;2023-10-09T12:31:17;20.80;99.90
80426;DHT22;69766;51.476;5.704;2023-10-09T12:33:46;20.90;99.90
80426;DHT22;69766;51.476;5.704;2023-10-09T12:36:16;21.00;99.90
80426;DHT22;69766;51.476;5.704;2023-10-09T12:38:48;21.10;99.90
80426;DHT22;69766;51.476;5.704;2023-10-09T12:41:24;20.90;99.90
80426;DHT22;69766;51.476;5.704;2023-10-09T12:43:54;21.10;99.90
80426;DHT22;69766;51.476;5.704;2023-10-09T12:46:21;21.00;99.90
80426;DHT22;69766;51.476;5.704;2023-10-09T12:48:49;21.00;99.90
80426;DHT22;69766;51.476;5.704;2023-10-09T12:51:15;21.10;99.90
80426;DHT22;69766;51.476;5.704;2023-10-09T12:53:44;21.10;99.90
80426;DHT22;69766;51.476;5.704;2023-10-09T12:56:11;21.30;99.90
80426;DHT22;69766;51.476;5.704;2023-10-09T12:58:38;21.50;99.90
80426;DHT22;69766;51.476;5.704;2023-10-09T13:01:04;21.60;99.90
80426;DHT22;69766;51.476;5.704;2023-10-09T13:03:43;21.30;99.90
80426;DHT22;69766;51.476;5.704;2023-10-09T13:06:09;21.50;99.90
80426;DHT22;69766;51.476;5.704;2023-10-09T13:08:40;21.70;99.90
80426;DHT22;69766;51.476;5.704;2023-10-09T13:11:08;21.80;99.90
80426;DHT22;69766;51.476;5.704;2023-10-09T13:13:41;21.80;99.90
80426;DHT22;69766;51.476;5.704;2023-10-09T13:16:16;22.60;99.90
80426;DHT22;69766;51.476;5.704;2023-10-09T13:18:49;23.10;99.90
80426;DHT22;69766;51.476;5.704;2023-10-09T13:21:27;23.40;99.90
80426;DHT22;69766;51.476;5.704;2023-10-09T13:23:57;23.90;99.90
80426;DHT22;69766;51.476;5.704;2023-10-09T13:26:24;24.60;99.90
80426;DHT22;69766;51.476;5.704;2023-10-09T13:28:54;24.60;99.90
80426;DHT22;69766;51.476;5.704;2023-10-09T13:31:22;23.80;99.90
80426;DHT22;69766;51.476;5.704;2023-10-09T13:33:52;23.00;99.90
80426;DHT22;69766;51.476;5.704;2023-10-09T13:36:24;22.50;99.90
80426;DHT22;69766;51.476;5.704;2023-10-09T13:38:54;22.20;99.90
80426;DHT22;69766;51.476;5.704;2023-10-09T13:41:21;22.10;99.90
80426;DHT22;69766;51.476;5.704;2023-10-09T13:43:47;21.90;99.90
80426;DHT22;69766;51.476;5.704;2023-10-09T13:46:13;22.10;99.90
80426;DHT22;69766;51.476;5.704;2023-10-09T13:48:43;22.30;99.90
80426;DHT22;69766;51.476;5.704;2023-10-09T13:51:12;22.40;99.90
80426;DHT22;69766;51.476;5.704;2023-10-09T13:53:51;23.00;99.90
80426;DHT22;69766;51.476;5.704;2023-10-09T13:56:18;23.70;99.90
80426;DHT22;69766;51.476;5.704;2023-10-09T13:58:45;24.80;99.90
80426;DHT22;69766;51.476;5.704;2023-10-09T14:01:14;25.60;99.90
80426;DHT22;69766;51.476;5.704;2023-10-09T14:03:55;25.80;99.90
80426;DHT22;69766;51.476;5.704;2023-10-09T14:06:21;25.60;99.90
80426;DHT22;69766;51.476;5.704;2023-10-09T14:08:57;25.60;99.90
80426;DHT22;69766;51.476;5.704;2023-10-09T14:11:22;25.80;99.90
80426;DHT22;69766;51.476;5.704;2023-10-09T14:13:51;25.60;99.90
80426;DHT22;69766;51.476;5.704;2023-10-09T14:16:16;25.30;99.90
80426;DHT22;69766;51.476;5.704;2023-10-09T14:18:56;24.70;99.90
80426;DHT22;69766;51.476;5.704;2023-10-09T14:21:29;24.30;99.90
80426;DHT22;69766;51.476;5.704;2023-10-09T14:24:01;24.00;99.90
80426;DHT22;69766;51.476;5.704;2023-10-09T14:26:28;23.60;99.90
80426;DHT22;69766;51.476;5.704;2023-10-09T14:28:59;23.40;99.90
80426;DHT22;69766;51.476;5.704;2023-10-09T14:31:28;22.90;99.90
80426;DHT22;69766;51.476;5.704;2023-10-09T14:33:56;23.20;99.90
80426;DHT22;69766;51.476;5.704;2023-10-09T14:36:32;24.30;99.90
80426;DHT22;69766;51.476;5.704;2023-10-09T14:39:01;24.50;99.90
80426;DHT22;69766;51.476;5.704;2023-10-09T14:41:29;25.10;99.90
80426;DHT22;69766;51.476;5.704;2023-10-09T14:44:01;26.20;99.90
80426;DHT22;69766;51.476;5.704;2023-10-09T14:46:29;26.20;99.90
80426;DHT22;69766;51.476;5.704;2023-10-09T14:48:56;26.70;99.90
80426;DHT22;69766;51.476;5.704;2023-10-09T14:51:22;26.90;99.90
80426;DHT22;69766;51.476;5.704;2023-10-09T14:53:53;26.70;99.90
80426;DHT22;69766;51.476;5.704;2023-10-09T14:56:18;25.90;99.90
80426;DHT22;69766;51.476;5.704;2023-10-09T14:58:58;25.10;99.90
80426;DHT22;69766;51.476;5.704;2023-10-09T15:01:32;24.50;99.90
80426;DHT22;69766;51.476;5.704;2023-10-09T15:03:58;24.70;99.90
80426;DHT22;69766;51.476;5.704;2023-10-09T15:06:29;24.40;99.90
80426;DHT22;69766;51.476;5.704;2023-10-09T15:09:04;24.10;99.90
80426;DHT22;69766;51.476;5.704;2023-10-09T15:11:52;23.30;99.90
80426;DHT22;69766;51.476;5.704;2023-10-09T15:14:18;22.60;99.90
80426;DHT22;69766;51.476;5.704;2023-10-09T15:16:45;22.50;99.90
80426;DHT22;69766;51.476;5.704;2023-10-09T15:19:12;22.10;99.90
80426;DHT22;69766;51.476;5.704;2023-10-09T15:21:41;21.90;99.90
80426;DHT22;69766;51.476;5.704;2023-10-09T15:24:15;21.80;99.90
80426;DHT22;69766;51.476;5.704;2023-10-09T15:26:50;21.80;99.90
80426;DHT22;69766;51.476;5.704;2023-10-09T15:29:28;21.70;99.90
80426;DHT22;69766;51.476;5.704;2023-10-09T15:32:24;21.50;99.90
80426;DHT22;69766;51.476;5.704;2023-10-09T15:35:00;21.50;99.90
80426;DHT22;69766;51.476;5.704;2023-10-09T15:37:28;21.30;99.90
80426;DHT22;69766;51.476;5.704;2023-10-09T15:39:54;21.30;99.90
80426;DHT22;69766;51.476;5.704;2023-10-09T15:42:20;21.40;99.90
80426;DHT22;69766;51.476;5.704;2023-10-09T15:44:46;21.30;99.90
80426;DHT22;69766;51.476;5.704;2023-10-09T15:47:13;21.40;99.90
80426;DHT22;69766;51.476;5.704;2023-10-09T15:49:45;21.80;99.90
80426;DHT22;69766;51.476;5.704;2023-10-09T15:52:15;22.20;99.90
80426;DHT22;69766;51.476;5.704;2023-10-09T15:54:44;22.40;99.90
80426;DHT22;69766;51.476;5.704;2023-10-09T15:57:10;22.40;99.90
80426;DHT22;69766;51.476;5.704;2023-10-09T15:59:38;22.00;99.90
80426;DHT22;69766;51.476;5.704;2023-10-09T16:02:05;21.50;99.90
80426;DHT22;69766;51.476;5.704;2023-10-09T16:04:34;21.40;99.90
80426;DHT22;69766;51.476;5.704;2023-10-09T16:07:05;21.50;99.90
80426;DHT22;69766;51.476;5.704;2023-10-09T16:09:33;21.50;99.90
80426;DHT22;69766;51.476;5.704;2023-10-09T16:12:06;21.50;99.90
80426;DHT22;69766;51.476;5.704;2023-10-09T16:14:33;21.40;99.90
80426;DHT22;69766;51.476;5.704;2023-10-09T16:17:02;21.40;99.90
80426;DHT22;69766;51.476;5.704;2023-10-09T16:19:37;21.30;99.90
80426;DHT22;69766;51.476;5.704;2023-10-09T16:22:09;21.20;99.90
80426;DHT22;69766;51.476;5.704;2023-10-09T16:24:40;21.00;99.90
80426;DHT22;69766;51.476;5.704;2023-10-09T16:27:22;20.90;99.90
80426;DHT22;69766;51.476;5.704;2023-10-09T16:29:57;20.70;99.90